Billville, Indiana
Current Conditions -  °F | °C
As of 10:16 AM on Friday 28 Nov 2014 (Local Time) from KHUF Reporting Station
Overcast Overcast  
Wind Chill: 16°   Ceiling: 12000
Heat Index: 26°   Visibility: 10mi
Dew Point: 20°   Wind: 10mph
Humidity: 78%   Direction: 160°SSE
Pressure: 30.34"   Gusts: NA
Location:  39.5158°N, 87.1262°W
Report Text: KHUF 281516Z 16009KT 10SM SCT020 OVC120 M03/M07 A3034 RMK AO2 T10331067
Loading
Personal Weather Stations






























Interactive Weather Map New forecast layout! Learn more

10-Day Weather Forecast

Advertisements
Track Severe Weather on mobile